Sanostee, NM (87461)

10:34 AM MDT on September 04, 2015 (GMT -0600)
Four Corners Regional | | Change Station
CLOSE
Current Station
Airport
Location: Farmington,
Elevation: 5502 ft
Nearby Weather Stations

Elev 5502 ft 36.74 °N, 108.23 °W | Updated 41 minutes ago

Rain
Rain
69 °F
Feels Like 69 °F
N
7
Wind Variable Wind from East

Today
High -- | Low -- °F
--% Chance of Precip.
Yesterday
High -- | Low -- °F
Precip. -- in
6:49 AM 7:39 PM
Waning Gibbous, 58% visible
Pressure 29.94 in
Visibility 7.0 miles
Clouds Overcast 10000 ft
Dew Point 52 °F
Humidity 54%
Rainfall 0.01 in
Snow Depth Not available.
UV 1 out of 12
Pollen 6.70 out of 12
Air Quality Not available.
Flu Activity Not available.
METAR KFMN 041553Z 09006KT 7SM OVC100 21/11 A3012 RMK AO2 SLP139 T02060111
Pressure 29.94 in
Visibility 7.0 miles
Clouds Overcast 10000 ft
Dew Point 52 °F
Humidity 54%
Rainfall 0.01 in
Snow Depth Not available.
UV 1 out of 12
Pollen 6.70 out of 12
Air Quality Not available.
Flu Activity Not available.
METAR KFMN 041553Z 09006KT 7SM OVC100 21/11 A3012 RMK AO2 SLP139 T02060111

10-Day Weather Forecast

×

Almanac

Astronomy

Sep. 04, 2015 Rise Set
Actual Time
Civil Twilight
Nautical Twilight
Astronomical Twilight
Moon
Length of Visible Light
Length of Day
Tomorrow will be .
, % of the Moon is Illuminated

Today's Extremes

State Highs State Lows

Community

WunderPhotos

Upload Photos

1,852,220 photos uploaded!

WunderBlogs® & News

Nearby

Air Quality

  Air Quality AQ Index Pollutant
Not available.

Snow Depth

Station Depth Elevation

Earthquake Activity

City Distance Mag. Time & Date
Minimum magnitude displayed is 2.5.

Coastal Water Temperatures

Place Temperature

Stations

Nearby Weather Stations

Station Location Temp. Windchill Dew Point Humidity Wind Precip. Elev Updated Type